Time;durP1;ratioP1;P1;durP2;ratioP2;P2;SDS_P1;SDS_P2;PMS_P1;PMS_P2;Temp;Humidity;BMP_temperature;BMP_pressure;BME280_temperature;BME280_humidity;BME280_pressure;Samples;Min_cycle;Max_cycle;Signal;HPM_P1;HPM_P2
2022/01/28 00:01:34;;;;;;;14.43;10.00;;;20.70;53.20;;;;;;5054596;28;20034;-73
2022/01/28 00:04:11;;;;;;;14.40;9.20;;;20.60;53.10;;;;;;5055088;28;20037;-73
2022/01/28 00:06:38;;;;;;;12.60;8.60;;;20.60;53.10;;;;;;5054589;28;20038;-73
2022/01/28 00:09:05;;;;;;;13.60;8.73;;;20.60;53.20;;;;;;5054398;28;20041;-72
2022/01/28 00:11:31;;;;;;;13.90;9.15;;;20.60;53.20;;;;;;5054262;28;20033;-72
2022/01/28 00:38:37;;;;;;;16.33;9.80;;;20.70;52.70;;;;;;5055557;28;20056;-73
2022/01/28 00:41:03;;;;;;;16.48;9.75;;;20.70;52.70;;;;;;5055617;28;20052;-72
2022/01/28 00:43:29;;;;;;;14.90;8.95;;;20.70;52.60;;;;;;5056113;28;20045;-72
2022/01/28 00:45:56;;;;;;;14.90;9.35;;;20.60;52.50;;;;;;5055719;28;20060;-72
2022/01/28 00:48:22;;;;;;;22.83;10.43;;;20.60;52.50;;;;;;5056195;28;20068;-73
2022/01/28 00:50:48;;;;;;;18.50;10.10;;;20.60;52.50;;;;;;5055643;28;20037;-72
2022/01/28 00:53:14;;;;;;;15.80;9.43;;;20.50;52.60;;;;;;5055513;28;20116;-72
2022/01/28 00:55:41;;;;;;;16.13;9.55;;;20.50;52.70;;;;;;5055548;28;20036;-72
2022/01/28 00:58:07;;;;;;;16.20;9.75;;;20.50;52.80;;;;;;5047504;28;20038;-72
2022/01/28 01:00:33;;;;;;;14.65;9.55;;;20.50;52.70;;;;;;5038572;28;20125;-73
2022/01/28 01:02:59;;;;;;;14.27;9.05;;;20.50;52.80;;;;;;5055732;28;20045;-73
2022/01/28 01:05:26;;;;;;;15.40;9.20;;;20.50;52.70;;;;;;5056305;28;20033;-72
2022/01/28 01:07:52;;;;;;;14.60;8.43;;;20.50;52.80;;;;;;5056505;28;20038;-72
2022/01/28 01:10:18;;;;;;;13.48;8.15;;;20.50;52.90;;;;;;5059376;28;20066;-72
2022/01/28 01:12:46;;;;;;;15.60;9.45;;;20.50;52.80;;;;;;5059327;28;20064;-72
2022/01/28 01:15:18;;;;;;;13.10;8.75;;;20.40;52.70;;;;;;5059147;28;20052;-72
2022/01/28 01:18:10;;;;;;;13.02;7.80;;;20.50;52.70;;;;;;5041847;28;20152;-72
2022/01/28 01:20:50;;;;;;;16.55;8.65;;;20.50;52.60;;;;;;5059389;28;20040;-73
2022/01/28 01:26:14;;;;;;;15.20;8.70;;;20.50;52.50;;;;;;5032287;28;20056;-72
2022/01/28 01:28:42;;;;;;;14.05;8.10;;;20.50;52.30;;;;;;5041629;28;20045;-73
2022/01/28 01:31:13;;;;;;;15.00;7.82;;;20.40;52.20;;;;;;5058892;28;20037;-72
2022/01/28 01:34:24;;;;;;;16.15;9.43;;;20.50;52.10;;;;;;5059435;28;20068;-72
2022/01/28 01:36:26;;;;;;;13.70;8.45;;;20.40;52.00;;;;;;5051562;28;20025;-73
2022/01/28 01:38:53;;;;;;;13.40;8.43;;;20.50;52.00;;;;;;5046499;28;20045;-72
2022/01/28 01:41:34;;;;;;;12.30;8.15;;;20.50;52.10;;;;;;5053987;28;20037;-72
2022/01/28 01:46:57;;;;;;;15.23;8.73;;;20.50;52.30;;;;;;5058103;28;20526;-72
2022/01/28 01:52:07;;;;;;;12.18;7.88;;;20.40;52.40;;;;;;5039049;28;20069;-72
2022/01/28 01:54:42;;;;;;;15.60;9.07;;;20.30;52.50;;;;;;5056686;28;20033;-72
2022/01/28 01:57:11;;;;;;;13.65;8.63;;;20.20;52.50;;;;;;5057186;28;20033;-72
2022/01/28 01:59:39;;;;;;;10.70;7.72;;;20.20;52.50;;;;;;5058702;28;20071;-72
2022/01/28 02:02:07;;;;;;;12.30;7.82;;;20.30;52.70;;;;;;5044994;28;20100;-72
2022/01/28 02:04:33;;;;;;;14.48;8.20;;;20.40;52.80;;;;;;5038567;28;20045;-72
2022/01/28 02:07:00;;;;;;;13.82;8.00;;;20.20;52.70;;;;;;5056280;28;20069;-72
2022/01/28 02:09:27;;;;;;;12.40;8.05;;;20.30;52.80;;;;;;5057579;28;20113;-72
2022/01/28 02:11:53;;;;;;;12.27;8.35;;;20.20;52.80;;;;;;5058143;28;20067;-72
2022/01/28 02:14:19;;;;;;;11.23;8.05;;;20.20;52.60;;;;;;5058603;28;20080;-72
2022/01/28 02:16:46;;;;;;;14.73;8.18;;;20.30;52.60;;;;;;5057373;28;20448;-72
2022/01/28 02:19:12;;;;;;;14.25;8.80;;;20.30;52.50;;;;;;5058463;28;20037;-72
2022/01/28 02:21:45;;;;;;;14.85;8.23;;;20.30;52.40;;;;;;5058326;28;20033;-72
2022/01/28 02:24:13;;;;;;;10.70;7.53;;;20.40;52.30;;;;;;5057599;28;20033;-72
2022/01/28 02:26:40;;;;;;;14.95;7.63;;;20.30;52.30;;;;;;5057945;28;20105;-72
2022/01/28 02:29:13;;;;;;;13.15;7.95;;;20.30;52.20;;;;;;5057582;28;20068;-72
2022/01/28 02:31:40;;;;;;;12.43;7.80;;;20.30;52.20;;;;;;5057505;28;20052;-72
2022/01/28 02:34:10;;;;;;;15.40;8.13;;;20.30;52.00;;;;;;5057737;28;20037;-72
2022/01/28 02:36:38;;;;;;;9.50;6.63;;;20.40;52.00;;;;;;5058002;28;20072;-72
2022/01/28 02:39:05;;;;;;;13.25;7.80;;;20.30;52.10;;;;;;5056898;28;20037;-72
2022/01/28 02:41:36;;;;;;;11.38;7.25;;;20.20;52.10;;;;;;5057899;28;20034;-72
2022/01/28 02:47:01;;;;;;;13.60;8.27;;;20.20;52.30;;;;;;5056990;28;20064;-72
2022/01/28 02:49:33;;;;;;;13.05;7.20;;;20.10;52.30;;;;;;5057967;28;20064;-72
2022/01/28 02:52:02;;;;;;;11.10;6.90;;;20.20;52.40;;;;;;5057903;28;20061;-72
2022/01/28 02:54:28;;;;;;;11.80;7.75;;;20.10;52.50;;;;;;5054569;28;20065;-72
2022/01/28 02:57:02;;;;;;;14.60;7.97;;;20.10;52.60;;;;;;5057414;28;20132;-73
2022/01/28 02:59:28;;;;;;;13.52;7.32;;;20.10;52.70;;;;;;5056958;28;20041;-72
2022/01/28 03:01:54;;;;;;;11.07;7.45;;;20.00;52.70;;;;;;5054994;28;20052;-73
2022/01/28 03:06:55;;;;;;;14.73;9.35;;;20.00;52.80;;;;;;5056522;28;20045;-73
2022/01/28 03:09:21;;;;;;;15.73;8.43;;;20.10;52.80;;;;;;5056631;28;20081;-73
2022/01/28 03:12:12;;;;;;;15.20;9.25;;;20.00;52.50;;;;;;5056709;28;20049;-73
2022/01/28 03:14:58;;;;;;;16.80;10.68;;;20.10;52.50;;;;;;5057234;28;20052;-73
2022/01/28 03:22:42;;;;;;;12.80;8.60;;;20.20;52.20;;;;;;5056093;28;20048;-73
2022/01/28 03:25:09;;;;;;;14.57;8.70;;;20.10;52.00;;;;;;5056155;28;20113;-73
2022/01/28 03:27:54;;;;;;;15.15;9.15;;;20.20;51.90;;;;;;5057017;28;20029;-73
2022/01/28 03:30:21;;;;;;;14.55;9.10;;;20.20;51.90;;;;;;5056073;28;20038;-73
2022/01/28 03:32:47;;;;;;;13.82;8.45;;;20.30;51.90;;;;;;5057047;28;20029;-73
2022/01/28 03:35:17;;;;;;;12.80;9.18;;;20.20;51.90;;;;;;5056735;28;20045;-73
2022/01/28 03:37:44;;;;;;;12.10;8.00;;;20.10;52.00;;;;;;5056577;28;20105;-73
2022/01/28 03:40:11;;;;;;;13.75;8.95;;;20.10;52.10;;;;;;5055008;28;20053;-73
2022/01/28 03:42:38;;;;;;;14.27;9.60;;;20.10;52.20;;;;;;5056431;28;20046;-72
2022/01/28 03:45:05;;;;;;;16.10;9.40;;;20.20;52.30;;;;;;5056109;28;20057;-72
2022/01/28 03:47:32;;;;;;;16.02;8.52;;;20.00;52.20;;;;;;5055172;28;20059;-72
2022/01/28 03:49:58;;;;;;;14.93;9.55;;;20.10;52.40;;;;;;5056320;28;20041;-73
2022/01/28 03:52:24;;;;;;;16.33;10.15;;;20.00;52.50;;;;;;5056616;28;20053;-72
2022/01/28 03:54:50;;;;;;;17.05;10.93;;;20.10;52.50;;;;;;5055946;28;20050;-72
2022/01/28 03:57:17;;;;;;;20.98;12.07;;;20.00;52.50;;;;;;5055670;28;20052;-72
2022/01/28 03:59:43;;;;;;;17.35;11.30;;;20.10;52.60;;;;;;5056035;28;20041;-72
2022/01/28 04:02:10;;;;;;;19.55;11.65;;;20.00;52.50;;;;;;5040869;28;20053;-73
2022/01/28 04:12:55;;;;;;;13.48;10.02;;;20.00;52.10;;;;;;5056095;28;20043;-72
2022/01/28 04:15:51;;;;;;;15.40;9.75;;;20.10;52.10;;;;;;5055333;28;20056;-73
2022/01/28 04:18:17;;;;;;;17.48;9.13;;;20.10;51.90;;;;;;5053549;28;20068;-73
2022/01/28 04:20:43;;;;;;;16.63;9.73;;;20.10;51.90;;;;;;5055934;28;20450;-73
2022/01/28 04:23:09;;;;;;;17.33;9.98;;;20.20;51.80;;;;;;5055437;28;20047;-73
2022/01/28 04:25:35;;;;;;;15.60;10.20;;;20.10;51.70;;;;;;5034612;28;20048;-73
2022/01/28 04:28:06;;;;;;;16.48;10.73;;;20.10;51.60;;;;;;5055710;28;20129;-73
2022/01/28 04:30:32;;;;;;;20.48;12.68;;;20.10;51.70;;;;;;5055463;28;20035;-73
2022/01/28 04:32:59;;;;;;;20.27;12.20;;;20.10;51.80;;;;;;5055687;28;20042;-72
2022/01/28 04:35:25;;;;;;;17.67;10.57;;;20.10;52.00;;;;;;5055665;28;20041;-73
2022/01/28 04:40:45;;;;;;;19.38;12.90;;;20.10;52.00;;;;;;5056328;28;20045;-72
2022/01/28 04:43:21;;;;;;;20.70;11.50;;;20.20;52.10;;;;;;5059880;28;20056;-72
2022/01/28 04:46:00;;;;;;;23.13;13.63;;;20.20;52.20;;;;;;5059192;28;20041;-72
2022/01/28 04:48:35;;;;;;;15.18;9.48;;;20.10;52.20;;;;;;5059981;28;20052;-73
2022/01/28 04:51:34;;;;;;;19.02;10.70;;;20.00;52.20;;;;;;5060199;28;20034;-72
2022/01/28 05:09:47;;;;;;;15.95;10.48;;;20.00;52.10;;;;;;5058401;28;20045;-72
2022/01/28 05:12:38;;;;;;;19.20;10.57;;;20.10;52.00;;;;;;5057426;28;20048;-73
2022/01/28 05:26:13;;;;;;;15.95;10.23;;;20.10;51.60;;;;;;5057493;28;20049;-73
2022/01/28 05:28:23;;;;;;;17.50;9.38;;;20.00;51.60;;;;;;5036617;28;20037;-71
2022/01/28 05:30:49;;;;;;;14.70;9.65;;;20.20;51.80;;;;;;5045121;28;20034;-72
2022/01/28 05:33:15;;;;;;;16.27;9.35;;;20.10;51.90;;;;;;5058782;28;20067;-73
2022/01/28 05:35:42;;;;;;;17.83;9.57;;;20.00;51.80;;;;;;5057850;28;20045;-72
2022/01/28 05:38:08;;;;;;;16.45;10.60;;;20.10;52.10;;;;;;5058340;28;20043;-72
2022/01/28 05:40:34;;;;;;;17.88;10.40;;;19.90;52.10;;;;;;5058004;28;20068;-72
2022/01/28 05:43:00;;;;;;;17.17;10.50;;;20.00;52.20;;;;;;5058058;28;20045;-72
2022/01/28 05:45:27;;;;;;;18.38;10.27;;;19.90;52.20;;;;;;5057784;28;20041;-73
2022/01/28 05:47:53;;;;;;;15.57;10.40;;;19.90;52.30;;;;;;5058042;28;20071;-73
2022/01/28 05:50:19;;;;;;;29.88;17.05;;;19.90;52.40;;;;;;5057902;28;20052;-72
2022/01/28 05:52:45;;;;;;;26.10;15.65;;;19.80;52.30;;;;;;5057858;28;20095;-72
2022/01/28 05:55:12;;;;;;;40.38;23.88;;;19.80;52.30;;;;;;5057371;28;20044;-72
2022/01/28 05:57:38;;;;;;;25.40;15.13;;;20.00;52.50;;;;;;5038555;28;20046;-72
2022/01/28 06:00:05;;;;;;;22.70;13.23;;;19.90;52.30;;;;;;5039947;28;20109;-73
2022/01/28 06:02:31;;;;;;;21.00;11.63;;;19.90;52.10;;;;;;5051679;28;20097;-72
2022/01/28 06:04:57;;;;;;;34.38;16.23;;;19.90;52.00;;;;;;5054418;28;20046;-72
2022/01/28 06:07:24;;;;;;;25.50;14.82;;;19.90;51.80;;;;;;5041439;28;20046;-71
2022/01/28 06:09:50;;;;;;;11.10;7.95;;;20.00;51.60;;;;;;5049600;28;20046;-71
2022/01/28 06:12:16;;;;;;;11.68;6.85;;;20.10;46.00;;;;;;5047245;28;20118;-71
2022/01/28 06:14:42;;;;;;;9.63;6.03;;;20.10;44.30;;;;;;5050558;28;20053;-71
2022/01/28 06:17:09;;;;;;;10.35;6.43;;;20.30;43.80;;;;;;5045980;28;20040;-71
2022/01/28 06:19:35;;;;;;;10.18;6.20;;;20.40;43.30;;;;;;5052117;28;20049;-71
2022/01/28 06:22:01;;;;;;;12.30;7.65;;;20.60;42.70;;;;;;5047297;28;20049;-70
2022/01/28 06:24:28;;;;;;;12.18;8.20;;;20.80;45.20;;;;;;5049911;28;20037;-71
2022/01/28 06:26:55;;;;;;;14.73;7.78;;;21.00;44.20;;;;;;5048126;28;20033;-69
2022/01/28 06:29:23;;;;;;;14.32;8.32;;;21.10;44.80;;;;;;5048535;28;20069;-71
2022/01/28 06:31:49;;;;;;;17.10;8.85;;;21.00;43.70;;;;;;5050682;28;20037;-71
2022/01/28 06:34:15;;;;;;;12.40;8.68;;;21.00;42.80;;;;;;5052293;28;20092;-71
2022/01/28 06:36:42;;;;;;;12.65;7.70;;;21.00;43.00;;;;;;5049718;28;20038;-71
2022/01/28 06:39:07;;;;;;;11.48;7.50;;;21.20;43.00;;;;;;5053852;28;20049;-71
2022/01/28 06:41:33;;;;;;;12.35;7.63;;;21.30;52.60;;;;;;5050180;28;20092;-70
2022/01/28 06:44:00;;;;;;;15.18;8.07;;;21.40;51.70;;;;;;5053427;28;20051;-71
2022/01/28 06:46:27;;;;;;;14.50;9.32;;;21.60;54.70;;;;;;5054696;28;20041;-71
2022/01/28 06:48:53;;;;;;;14.73;10.35;;;21.80;43.40;;;;;;5057001;28;20063;-71
2022/01/28 06:51:19;;;;;;;20.13;12.38;;;21.60;40.90;;;;;;5056989;28;20042;-71
2022/01/28 06:53:45;;;;;;;25.60;14.50;;;21.50;42.90;;;;;;5048641;28;20041;-71
2022/01/28 06:56:12;;;;;;;22.52;14.13;;;21.70;53.20;;;;;;5041976;28;20049;-70
2022/01/28 06:58:38;;;;;;;24.58;15.05;;;21.60;57.80;;;;;;5037204;28;20042;-70
2022/01/28 07:01:04;;;;;;;24.92;15.43;;;21.40;56.80;;;;;;5045992;28;20052;-72
2022/01/28 07:03:30;;;;;;;27.23;16.58;;;21.30;57.80;;;;;;5052506;28;20064;-71
2022/01/28 07:05:57;;;;;;;26.42;15.77;;;21.10;57.70;;;;;;5051641;28;20041;-71
2022/01/28 07:08:25;;;;;;;28.52;16.27;;;21.10;58.30;;;;;;5054507;28;20083;-72
2022/01/28 07:10:51;;;;;;;29.65;16.60;;;21.10;58.50;;;;;;5054561;28;20048;-70
2022/01/28 07:13:17;;;;;;;29.95;16.58;;;20.90;59.40;;;;;;5055459;28;20057;-70
2022/01/28 07:15:45;;;;;;;26.05;15.57;;;20.90;59.60;;;;;;5055877;28;20037;-70
2022/01/28 07:18:11;;;;;;;26.02;16.77;;;20.80;60.30;;;;;;5053760;28;20092;-70
2022/01/28 07:20:37;;;;;;;30.52;17.00;;;20.80;60.60;;;;;;5047781;28;20085;-71
2022/01/28 07:23:03;;;;;;;28.27;15.32;;;20.70;60.30;;;;;;5050784;28;20037;-70
2022/01/28 07:25:29;;;;;;;27.50;15.90;;;20.80;60.30;;;;;;5052616;28;20144;-70
2022/01/28 07:27:55;;;;;;;24.85;16.15;;;20.80;60.80;;;;;;5055586;28;20025;-69
2022/01/28 07:30:21;;;;;;;25.85;16.08;;;20.80;61.00;;;;;;5056453;28;20056;-70
2022/01/28 07:32:52;;;;;;;26.27;16.85;;;20.80;61.10;;;;;;5050743;28;20033;-73
2022/01/28 07:35:18;;;;;;;26.30;16.92;;;20.90;60.90;;;;;;5047199;28;20046;-70
2022/01/28 07:37:44;;;;;;;29.27;16.48;;;20.70;61.40;;;;;;5036314;28;20056;-72
2022/01/28 07:40:11;;;;;;;21.95;14.90;;;20.80;61.50;;;;;;5038788;28;20054;-71
2022/01/28 07:42:38;;;;;;;22.67;13.40;;;20.80;61.40;;;;;;5035618;28;20072;-71
2022/01/28 07:45:07;;;;;;;24.08;14.20;;;20.80;61.50;;;;;;5052792;28;20049;-71
2022/01/28 07:47:36;;;;;;;22.33;13.30;;;20.90;61.30;;;;;;5050225;28;20048;-71
2022/01/28 07:50:07;;;;;;;22.60;13.25;;;20.90;60.80;;;;;;5039873;28;20041;-71
2022/01/28 07:52:34;;;;;;;28.65;18.02;;;20.90;60.80;;;;;;5042116;28;20041;-71
2022/01/28 07:55:00;;;;;;;30.33;19.40;;;21.00;60.70;;;;;;5050327;28;20045;-72
2022/01/28 07:57:26;;;;;;;22.13;13.35;;;20.90;60.30;;;;;;5042507;28;20038;-72
2022/01/28 07:59:52;;;;;;;19.88;12.30;;;20.90;60.10;;;;;;5051135;28;20045;-71
2022/01/28 08:02:18;;;;;;;18.63;11.10;;;20.80;59.80;;;;;;5046128;28;20068;-71
2022/01/28 08:04:44;;;;;;;19.52;11.23;;;21.00;59.70;;;;;;5055838;28;20049;-72
2022/01/28 08:07:13;;;;;;;18.25;9.48;;;21.00;59.50;;;;;;5039141;28;20038;-71
2022/01/28 08:09:39;;;;;;;15.63;8.65;;;21.00;59.20;;;;;;5049506;28;20122;-73
2022/01/28 08:12:06;;;;;;;13.82;7.85;;;21.00;59.10;;;;;;5052091;28;20058;-70
2022/01/28 08:14:32;;;;;;;10.80;5.97;;;21.10;59.80;;;;;;5062616;28;20052;-72
2022/01/28 08:16:59;;;;;;;12.20;7.00;;;21.10;59.80;;;;;;5059124;28;20033;-74
2022/01/28 08:19:25;;;;;;;11.88;6.78;;;21.40;59.30;;;;;;5052796;28;20041;-73
2022/01/28 08:21:51;;;;;;;10.90;6.50;;;21.60;58.40;;;;;;5054700;28;20030;-71
2022/01/28 08:24:18;;;;;;;12.10;6.13;;;21.80;57.50;;;;;;5055151;28;20041;-71
2022/01/28 08:26:44;;;;;;;15.18;7.88;;;21.80;56.60;;;;;;5047464;28;20046;-71
2022/01/28 08:29:10;;;;;;;13.90;8.65;;;21.80;55.50;;;;;;5053757;28;20045;-70
2022/01/28 08:31:37;;;;;;;20.73;9.65;;;21.90;53.80;;;;;;5054908;28;20040;-70
2022/01/28 08:34:03;;;;;;;19.88;11.02;;;21.90;52.50;;;;;;5055583;28;20068;-71
2022/01/28 08:36:30;;;;;;;24.55;12.73;;;21.90;51.60;;;;;;5053245;28;20041;-71
2022/01/28 08:38:57;;;;;;;17.67;9.70;;;22.00;50.80;;;;;;5055598;28;20118;-70
2022/01/28 08:41:23;;;;;;;24.35;14.75;;;22.10;50.20;;;;;;5054879;28;20045;-72
2022/01/28 08:43:51;;;;;;;28.52;16.73;;;22.10;49.60;;;;;;5054619;28;20037;-76
2022/01/28 08:46:18;;;;;;;38.75;20.70;;;22.20;48.60;;;;;;5052151;28;20057;-72
2022/01/28 08:48:45;;;;;;;40.17;20.25;;;22.00;48.10;;;;;;5057469;28;20037;-75
2022/01/28 08:51:11;;;;;;;35.15;20.02;;;21.90;48.10;;;;;;5049364;28;20033;-72
2022/01/28 08:53:39;;;;;;;35.83;20.75;;;21.80;48.30;;;;;;5048546;28;20042;-72
2022/01/28 08:56:06;;;;;;;35.70;20.67;;;21.80;48.80;;;;;;5054859;28;20053;-72
2022/01/28 08:58:32;;;;;;;32.47;19.95;;;21.60;49.20;;;;;;5054706;28;20065;-71
2022/01/28 09:00:58;;;;;;;35.63;19.08;;;21.50;49.70;;;;;;5054076;28;20037;-72
2022/01/28 09:03:24;;;;;;;33.17;19.20;;;21.60;50.10;;;;;;5036983;28;20044;-72
2022/01/28 09:05:52;;;;;;;32.83;18.80;;;21.40;50.30;;;;;;5033260;28;20048;-72
2022/01/28 09:08:18;;;;;;;33.53;18.63;;;21.50;50.80;;;;;;5049187;28;20064;-72
2022/01/28 09:10:57;;;;;;;25.05;15.68;;;21.50;51.00;;;;;;5042880;28;20098;-72
2022/01/28 09:13:28;;;;;;;28.83;15.77;;;21.50;51.20;;;;;;5053103;28;20044;-72
2022/01/28 09:15:56;;;;;;;23.73;13.77;;;21.30;51.20;;;;;;5053607;28;20080;-72
2022/01/28 09:18:23;;;;;;;19.33;12.73;;;21.20;51.30;;;;;;5055407;28;20037;-72
2022/01/28 09:20:50;;;;;;;27.13;15.43;;;21.30;51.70;;;;;;5054096;28;20042;-72
2022/01/28 09:23:16;;;;;;;23.00;15.07;;;21.40;51.70;;;;;;5054061;28;20053;-71
2022/01/28 09:25:43;;;;;;;29.20;14.55;;;21.20;51.80;;;;;;5054817;28;20037;-71
2022/01/28 09:28:09;;;;;;;17.30;11.68;;;21.20;52.00;;;;;;5058513;28;20043;-72
2022/01/28 09:30:35;;;;;;;19.40;12.55;;;21.20;52.20;;;;;;5058727;28;20037;-71
2022/01/28 09:33:03;;;;;;;21.13;12.55;;;21.10;52.20;;;;;;5052704;28;20064;-71
2022/01/28 09:35:29;;;;;;;20.45;12.73;;;21.10;52.40;;;;;;5049777;28;20042;-71
2022/01/28 09:37:55;;;;;;;16.95;11.38;;;21.20;52.30;;;;;;5030564;28;20041;-71
2022/01/28 09:40:22;;;;;;;14.40;9.38;;;21.10;52.60;;;;;;5055998;28;20045;-72
2022/01/28 09:42:51;;;;;;;20.83;11.52;;;21.10;52.50;;;;;;5055138;28;20045;-72
2022/01/28 09:45:22;;;;;;;21.65;12.18;;;21.20;52.50;;;;;;5057958;28;20055;-72
2022/01/28 09:47:51;;;;;;;18.10;11.60;;;21.20;52.60;;;;;;5045885;28;20088;-72
2022/01/28 09:50:18;;;;;;;22.17;12.73;;;21.00;52.60;;;;;;5054348;28;20045;-71
2022/01/28 09:52:44;;;;;;;21.85;11.88;;;21.10;52.70;;;;;;5054491;28;20059;-71
2022/01/28 09:55:12;;;;;;;15.98;7.60;;;21.10;52.90;;;;;;5050510;28;20041;-71
2022/01/28 09:57:38;;;;;;;15.70;8.65;;;21.20;52.90;;;;;;5063923;28;20032;-71
2022/01/28 10:00:06;;;;;;;17.10;10.07;;;21.10;52.90;;;;;;5055178;28;20763;-71
2022/01/28 10:02:47;;;;;;;15.10;8.83;;;21.10;52.70;;;;;;5050452;28;20049;-72
2022/01/28 10:05:27;;;;;;;15.18;8.48;;;21.30;52.50;;;;;;5054239;28;20295;-71
2022/01/28 10:08:05;;;;;;;10.48;7.32;;;21.30;52.50;;;;;;5049389;28;20048;-71
2022/01/28 10:11:15;;;;;;;14.77;8.57;;;21.50;56.00;;;;;;5044679;28;20053;-72
2022/01/28 10:13:51;;;;;;;12.35;7.45;;;21.60;56.00;;;;;;5047109;28;20165;-72
2022/01/28 10:16:19;;;;;;;11.93;7.50;;;21.80;57.00;;;;;;5044616;28;20056;-71
2022/01/28 10:18:48;;;;;;;13.30;8.88;;;22.00;57.80;;;;;;5051156;28;20026;-70
2022/01/28 10:21:25;;;;;;;10.38;5.97;;;22.00;47.80;;;;;;5055991;28;20113;-71
2022/01/28 10:24:02;;;;;;;12.73;4.95;;;22.20;37.70;;;;;;5050248;28;20109;-71
2022/01/28 10:26:44;;;;;;;11.80;7.45;;;22.40;37.80;;;;;;5046104;28;20042;-71
2022/01/28 10:29:20;;;;;;;8.05;6.03;;;22.40;35.20;;;;;;5051908;28;20049;-72
2022/01/28 10:32:04;;;;;;;7.43;4.63;;;22.50;34.90;;;;;;5052480;28;20048;-74
2022/01/28 10:34:30;;;;;;;7.88;4.63;;;22.50;37.20;;;;;;5060424;28;20065;-72
2022/01/28 10:37:20;;;;;;;8.50;5.70;;;22.60;35.90;;;;;;5048891;28;20046;-72
2022/01/28 10:39:48;;;;;;;10.60;6.57;;;22.50;49.00;;;;;;5041392;28;20047;-73
2022/01/28 10:42:20;;;;;;;11.18;6.32;;;22.50;51.30;;;;;;5056156;28;20033;-72
2022/01/28 10:44:57;;;;;;;11.57;7.00;;;22.40;48.60;;;;;;5054598;28;20041;-72
2022/01/28 10:47:37;;;;;;;10.85;7.60;;;23.00;50.10;;;;;;5057135;28;20038;-71
2022/01/28 10:50:35;;;;;;;10.65;5.40;;;23.20;51.20;;;;;;5052142;28;20042;-71
2022/01/28 10:53:08;;;;;;;9.82;5.45;;;23.50;47.10;;;;;;5047125;28;20041;-71
2022/01/28 10:55:46;;;;;;;7.65;4.55;;;23.70;39.70;;;;;;5050470;28;20049;-72
2022/01/28 10:58:15;;;;;;;8.27;6.22;;;23.50;36.10;;;;;;5051492;28;20067;-74
2022/01/28 11:00:47;;;;;;;9.88;6.35;;;23.50;32.10;;;;;;5053611;28;20049;-73
2022/01/28 11:03:16;;;;;;;9.77;6.65;;;23.30;32.40;;;;;;5054028;28;20060;-73
2022/01/28 11:05:44;;;;;;;9.98;5.95;;;23.30;31.20;;;;;;5055676;28;20045;-73
2022/01/28 11:08:12;;;;;;;9.15;5.68;;;23.20;31.80;;;;;;5056214;28;20037;-74
2022/01/28 11:10:39;;;;;;;10.13;5.75;;;23.40;46.40;;;;;;5056162;28;20060;-74
2022/01/28 11:13:05;;;;;;;10.00;5.75;;;23.60;48.40;;;;;;5055493;28;20041;-74
2022/01/28 11:15:33;;;;;;;9.85;6.00;;;23.90;48.50;;;;;;5068279;28;20052;-74
2022/01/28 11:18:01;;;;;;;12.70;6.38;;;23.90;48.40;;;;;;5056411;28;20164;-74
2022/01/28 11:20:39;;;;;;;9.27;6.70;;;24.00;48.50;;;;;;5056360;28;20037;-73
2022/01/28 11:23:26;;;;;;;8.32;5.70;;;24.00;48.60;;;;;;5056641;28;20079;-73
2022/01/28 11:26:16;;;;;;;13.15;5.75;;;23.90;48.90;;;;;;5055228;28;20041;-73
2022/01/28 11:28:45;;;;;;;16.13;5.43;;;23.80;49.10;;;;;;5056538;28;20065;-73
2022/01/28 11:31:13;;;;;;;13.27;6.45;;;23.80;49.50;;;;;;5048091;28;20063;-73
2022/01/28 11:33:43;;;;;;;6.68;5.35;;;23.80;49.40;;;;;;5056046;28;20045;-74
2022/01/28 11:36:10;;;;;;;12.35;5.70;;;23.80;49.60;;;;;;5056275;28;20042;-73
2022/01/28 11:38:40;;;;;;;9.13;5.70;;;23.70;50.00;;;;;;5056434;28;20045;-74
2022/01/28 11:41:09;;;;;;;7.68;5.50;;;23.50;48.20;;;;;;5046093;28;20042;-73
2022/01/28 11:43:47;;;;;;;6.22;4.65;;;23.50;52.00;;;;;;5056379;28;20045;-74
2022/01/28 11:46:16;;;;;;;11.30;6.57;;;23.50;50.00;;;;;;5054768;28;20039;-73
2022/01/28 11:49:14;;;;;;;10.40;5.65;;;23.50;51.30;;;;;;5055556;28;20127;-75
2022/01/28 11:51:44;;;;;;;10.27;5.38;;;23.30;51.20;;;;;;5055921;28;20137;-74
2022/01/28 11:54:15;;;;;;;8.20;5.85;;;23.30;51.40;;;;;;5055402;28;20029;-73
2022/01/28 11:57:08;;;;;;;8.70;4.80;;;23.20;51.10;;;;;;5054788;28;20045;-73
2022/01/28 11:59:34;;;;;;;8.70;5.53;;;23.40;51.60;;;;;;5048522;28;20056;-74
2022/01/28 12:02:00;;;;;;;6.80;4.45;;;23.40;50.20;;;;;;5054639;28;20094;-72
2022/01/28 12:04:30;;;;;;;6.18;5.07;;;23.40;51.90;;;;;;5054926;28;20061;-72
2022/01/28 12:07:14;;;;;;;7.20;5.18;;;23.40;51.80;;;;;;5055097;28;20101;-73
2022/01/28 12:09:44;;;;;;;6.63;4.63;;;23.30;51.40;;;;;;5054385;28;20079;-72
2022/01/28 12:12:13;;;;;;;10.43;4.70;;;23.40;51.60;;;;;;5035624;28;20065;-74
2022/01/28 12:15:04;;;;;;;7.72;5.43;;;23.30;50.80;;;;;;5051126;28;20043;-75
2022/01/28 12:17:31;;;;;;;9.20;5.72;;;23.40;50.90;;;;;;5055453;28;20042;-73
2022/01/28 12:20:18;;;;;;;11.05;6.13;;;23.30;51.30;;;;;;5044980;28;20033;-69
2022/01/28 12:23:09;;;;;;;10.88;7.30;;;23.40;51.60;;;;;;5071355;28;20037;-76
2022/01/28 12:25:35;;;;;;;9.95;5.07;;;23.30;51.50;;;;;;5055227;28;20081;-71
2022/01/28 12:28:17;;;;;;;9.35;5.18;;;23.20;51.40;;;;;;5055031;28;20037;-72
2022/01/28 12:30:46;;;;;;;6.40;4.70;;;23.10;51.90;;;;;;5055100;28;20052;-72
2022/01/28 12:33:14;;;;;;;11.75;5.05;;;23.20;53.30;;;;;;5055459;28;20034;-72
2022/01/28 12:35:42;;;;;;;4.07;3.10;;;23.20;49.90;;;;;;5055355;28;20097;-69
2022/01/28 12:38:11;;;;;;;5.63;3.70;;;23.20;53.20;;;;;;5055235;28;20045;-73
2022/01/28 12:40:41;;;;;;;5.78;3.47;;;23.20;53.30;;;;;;5055402;28;20053;-72
2022/01/28 12:43:08;;;;;;;7.28;4.38;;;23.30;53.70;;;;;;5055446;28;20048;-71
2022/01/28 12:45:35;;;;;;;5.75;4.10;;;23.20;53.60;;;;;;5055418;28;20049;-70
2022/01/28 12:48:01;;;;;;;5.13;3.60;;;23.10;53.70;;;;;;5055368;28;20067;-74
2022/01/28 12:50:32;;;;;;;5.20;3.60;;;23.10;53.70;;;;;;5055137;28;20084;-74
2022/01/28 12:52:58;;;;;;;5.97;3.60;;;23.20;53.60;;;;;;5055614;28;20037;-71
2022/01/28 12:55:35;;;;;;;7.13;3.20;;;23.00;54.20;;;;;;5055506;28;20055;-71
2022/01/28 12:58:01;;;;;;;3.08;2.63;;;23.00;54.70;;;;;;5055291;28;20041;-71
2022/01/28 13:00:27;;;;;;;4.32;3.88;;;23.10;55.60;;;;;;5055108;28;20104;-71
2022/01/28 13:02:53;;;;;;;3.67;3.10;;;23.00;55.90;;;;;;5058142;28;20045;-71
2022/01/28 13:05:36;;;;;;;3.70;3.33;;;22.90;56.40;;;;;;5059017;28;20116;-71
2022/01/28 13:10:47;;;;;;;4.25;3.40;;;22.90;57.20;;;;;;5058929;28;20075;-73
2022/01/28 13:13:14;;;;;;;5.30;3.80;;;22.80;57.70;;;;;;5058915;28;20042;-73
2022/01/28 13:15:51;;;;;;;4.63;3.55;;;22.80;57.60;;;;;;5058998;28;20038;-73
2022/01/28 13:18:17;;;;;;;4.28;3.30;;;22.80;57.30;;;;;;5059003;28;20080;-73
2022/01/28 13:20:43;;;;;;;3.70;3.30;;;22.90;57.20;;;;;;5058752;28;20029;-73
2022/01/28 13:23:11;;;;;;;8.30;4.28;;;22.80;56.20;;;;;;5074748;28;20071;-73
2022/01/28 13:25:39;;;;;;;8.27;4.43;;;22.90;56.00;;;;;;5058444;28;20044;-73
2022/01/28 13:28:14;;;;;;;6.53;3.15;;;22.90;56.00;;;;;;5058777;28;20076;-73
2022/01/28 13:30:41;;;;;;;5.55;3.40;;;22.80;56.30;;;;;;5058907;28;20053;-74
2022/01/28 13:33:09;;;;;;;5.50;3.50;;;22.90;56.30;;;;;;5074531;28;20053;-74
2022/01/28 13:35:37;;;;;;;5.10;3.22;;;23.00;57.90;;;;;;5058191;28;20068;-76
2022/01/28 13:38:17;;;;;;;4.63;3.58;;;22.90;58.90;;;;;;5058201;28;20051;-75
2022/01/28 13:40:44;;;;;;;5.90;3.50;;;23.00;58.20;;;;;;5058223;28;20049;-75
2022/01/28 13:43:14;;;;;;;6.10;4.00;;;23.00;57.90;;;;;;5058784;28;20045;-74
2022/01/28 13:45:53;;;;;;;4.93;3.58;;;22.90;57.60;;;;;;5058714;28;20041;-75
2022/01/28 13:48:21;;;;;;;4.90;3.70;;;23.10;57.70;;;;;;5057749;28;20049;-75
2022/01/28 13:50:50;;;;;;;5.18;4.22;;;23.00;56.40;;;;;;5059619;28;20112;-73
2022/01/28 13:53:34;;;;;;;6.38;3.97;;;23.00;56.10;;;;;;5057445;28;20033;-74
2022/01/28 13:56:03;;;;;;;7.70;4.78;;;23.00;56.20;;;;;;5057924;28;20072;-73
2022/01/28 13:58:45;;;;;;;5.85;3.92;;;23.00;56.10;;;;;;5057890;28;20072;-75
2022/01/28 14:01:11;;;;;;;6.22;4.50;;;22.90;56.40;;;;;;5057876;28;20044;-73
2022/01/28 14:03:57;;;;;;;5.35;4.13;;;22.90;56.50;;;;;;5057377;28;20041;-73
2022/01/28 14:06:27;;;;;;;7.57;4.85;;;22.90;56.50;;;;;;5057901;28;20048;-73
2022/01/28 14:09:10;;;;;;;9.18;4.38;;;22.80;56.60;;;;;;5057847;28;20163;-72
2022/01/28 14:11:46;;;;;;;6.55;4.70;;;22.90;56.90;;;;;;5057840;28;20041;-73
2022/01/28 14:14:46;;;;;;;6.63;4.18;;;22.70;56.90;;;;;;5057793;28;20046;-73